Time;durP1;ratioP1;P1;durP2;ratioP2;P2;SDS_P1;SDS_P2;PMS_P1;PMS_P2;Temp;Humidity;BMP_temperature;BMP_pressure;BME280_temperature;BME280_humidity;BME280_pressure;Samples;Min_cycle;Max_cycle;Signal;HPM_P1;HPM_P2
2023/02/14 00:01:08;;;;;;;6.33;4.80;;;;;;;;;;5051067;28;20462;-72
2023/02/14 00:03:35;;;;;;;10.87;5.70;;;;;;;;;;5051923;28;20887;-73
2023/02/14 00:06:05;;;;;;;15.43;5.70;;;;;;;;;;5051059;28;20537;-73
2023/02/14 00:08:33;;;;;;;6.70;4.53;;;;;;;;;;5051535;28;20492;-73
2023/02/14 00:11:01;;;;;;;8.47;4.90;;;;;;;;;;5051070;28;20824;-73
2023/02/14 00:13:28;;;;;;;10.07;4.93;;;;;;;;;;5051285;28;20457;-73
2023/02/14 00:15:54;;;;;;;11.07;5.93;;;;;;;;;;5050982;28;20931;-73
2023/02/14 00:18:21;;;;;;;13.27;6.33;;;;;;;;;;5051739;28;20453;-73
2023/02/14 00:20:49;;;;;;;6.50;4.90;;;;;;;;;;5051007;28;20967;-73
2023/02/14 00:23:16;;;;;;;5.70;4.27;;;;;;;;;;5051237;28;20508;-73
2023/02/14 00:25:43;;;;;;;9.23;4.13;;;;;;;;;;5051213;28;20447;-73
2023/02/14 00:28:11;;;;;;;13.83;5.67;;;;;;;;;;5051769;28;20462;-72
2023/02/14 00:30:38;;;;;;;11.93;7.47;;;;;;;;;;5051839;28;20442;-73
2023/02/14 00:33:05;;;;;;;10.53;6.30;;;;;;;;;;5051235;28;20454;-71
2023/02/14 00:35:32;;;;;;;10.20;6.10;;;;;;;;;;5051313;28;20457;-73
2023/02/14 00:38:00;;;;;;;13.57;6.80;;;;;;;;;;5051310;28;20479;-73
2023/02/14 00:40:27;;;;;;;8.60;4.80;;;;;;;;;;5051059;28;20492;-73
2023/02/14 00:42:54;;;;;;;7.13;6.23;;;;;;;;;;5050630;28;20489;-72
2023/02/14 00:45:23;;;;;;;9.13;5.87;;;;;;;;;;5051588;28;20801;-72
2023/02/14 00:47:50;;;;;;;8.33;5.77;;;;;;;;;;5050713;28;20447;-73
2023/02/14 00:50:17;;;;;;;7.83;5.53;;;;;;;;;;5051526;28;20830;-72
2023/02/14 00:52:44;;;;;;;9.27;6.00;;;;;;;;;;5050538;28;20805;-72
2023/02/14 00:55:11;;;;;;;10.37;5.07;;;;;;;;;;5051240;28;20442;-72
2023/02/14 00:57:38;;;;;;;10.43;5.60;;;;;;;;;;5051475;28;20451;-72
2023/02/14 01:00:06;;;;;;;8.53;6.30;;;;;;;;;;5051369;28;20809;-72
2023/02/14 01:02:35;;;;;;;11.80;6.53;;;;;;;;;;5055155;28;20809;-73
2023/02/14 01:05:02;;;;;;;8.47;6.37;;;;;;;;;;5050555;28;20486;-73
2023/02/14 01:07:29;;;;;;;9.00;6.40;;;;;;;;;;5051177;28;20876;-72
2023/02/14 01:09:56;;;;;;;11.90;4.83;;;;;;;;;;5050097;28;20477;-72
2023/02/14 01:12:23;;;;;;;5.93;4.90;;;;;;;;;;5050414;28;20472;-72
2023/02/14 01:14:50;;;;;;;7.70;6.57;;;;;;;;;;5050168;28;20467;-72
2023/02/14 01:17:17;;;;;;;10.00;6.60;;;;;;;;;;5051011;28;20451;-72
2023/02/14 01:19:46;;;;;;;13.73;7.60;;;;;;;;;;5050449;28;20450;-71
2023/02/14 01:22:13;;;;;;;11.43;5.70;;;;;;;;;;5049528;28;20978;-72
2023/02/14 01:24:40;;;;;;;8.83;7.33;;;;;;;;;;5050072;28;20480;-72
2023/02/14 01:27:07;;;;;;;8.07;6.30;;;;;;;;;;5050052;28;20455;-72
2023/02/14 01:29:34;;;;;;;11.70;7.33;;;;;;;;;;5050922;28;20926;-73
2023/02/14 01:32:01;;;;;;;12.17;6.50;;;;;;;;;;5049444;28;20446;-72
2023/02/14 01:34:28;;;;;;;7.80;4.60;;;;;;;;;;5050151;28;20465;-72
2023/02/14 01:36:57;;;;;;;9.83;5.27;;;;;;;;;;5049652;28;20939;-72
2023/02/14 01:39:24;;;;;;;12.50;6.30;;;;;;;;;;5050721;28;20447;-72
2023/02/14 01:41:52;;;;;;;12.30;6.57;;;;;;;;;;5049338;28;20466;-72
2023/02/14 01:44:38;;;;;;;9.80;4.77;;;;;;;;;;5050777;28;20573;-72
2023/02/14 01:47:07;;;;;;;8.83;4.37;;;;;;;;;;5050445;28;20454;-72
2023/02/14 01:49:36;;;;;;;17.53;8.07;;;;;;;;;;5050839;28;20895;-72
2023/02/14 01:52:06;;;;;;;8.90;5.10;;;;;;;;;;5049643;28;20910;-72
2023/02/14 01:54:34;;;;;;;9.60;5.60;;;;;;;;;;5050357;28;20457;-72
2023/02/14 01:57:03;;;;;;;16.73;7.27;;;;;;;;;;5052365;28;20450;-72
2023/02/14 01:59:32;;;;;;;5.23;4.70;;;;;;;;;;5054699;28;20457;-72
2023/02/14 02:01:59;;;;;;;13.30;5.10;;;;;;;;;;5053642;28;20460;-72
2023/02/14 02:04:27;;;;;;;15.87;6.60;;;;;;;;;;5054488;28;20532;-72
2023/02/14 02:06:56;;;;;;;9.30;5.63;;;;;;;;;;5053833;28;20464;-72
2023/02/14 02:09:29;;;;;;;8.50;5.10;;;;;;;;;;5054348;28;20485;-72
2023/02/14 02:11:56;;;;;;;11.17;5.23;;;;;;;;;;5053032;28;20454;-72
2023/02/14 02:14:23;;;;;;;12.93;5.87;;;;;;;;;;5053961;28;20454;-72
2023/02/14 02:17:02;;;;;;;5.90;3.83;;;;;;;;;;5053457;28;20947;-72
2023/02/14 02:19:52;;;;;;;10.87;5.80;;;;;;;;;;5054207;28;20449;-72
2023/02/14 02:22:37;;;;;;;11.73;5.60;;;;;;;;;;5053486;28;20953;-72
2023/02/14 02:25:16;;;;;;;9.80;5.07;;;;;;;;;;5053558;28;20547;-72
2023/02/14 02:27:55;;;;;;;4.37;3.97;;;;;;;;;;5040545;28;20492;-71
2023/02/14 02:30:50;;;;;;;12.03;6.20;;;;;;;;;;5054133;28;20450;-72
2023/02/14 02:33:50;;;;;;;10.73;6.30;;;;;;;;;;5053338;28;20452;-72
2023/02/14 02:36:47;;;;;;;11.90;6.43;;;;;;;;;;4992056;28;20456;-72
2023/02/14 02:39:23;;;;;;;8.70;5.40;;;;;;;;;;4991982;28;20456;-72
2023/02/14 02:41:59;;;;;;;5.93;5.30;;;;;;;;;;5034161;28;20981;-72
2023/02/14 02:44:30;;;;;;;6.40;5.10;;;;;;;;;;5053525;28;20473;-72
2023/02/14 02:47:03;;;;;;;6.50;3.97;;;;;;;;;;5053011;28;20444;-72
2023/02/14 02:55:12;;;;;;;13.47;5.30;;;;;;;;;;5052763;28;20414;-72
2023/02/14 02:57:40;;;;;;;7.67;5.37;;;;;;;;;;5053162;28;20454;-67
2023/02/14 03:00:08;;;;;;;10.70;4.70;;;;;;;;;;5053062;28;21018;-72
2023/02/14 03:04:46;;;;;;;8.93;4.90;;;;;;;;;;5052583;28;20461;-72
2023/02/14 03:05:24;;;;;;;11.70;5.77;;;;;;;;;;5042127;28;20479;-72
2023/02/14 03:07:51;;;;;;;8.70;5.33;;;;;;;;;;5051176;28;20489;-71
2023/02/14 03:10:20;;;;;;;8.20;4.90;;;;;;;;;;5052668;28;20995;-71
2023/02/14 03:12:51;;;;;;;6.63;4.13;;;;;;;;;;5051921;28;20450;-72
2023/02/14 03:15:22;;;;;;;6.73;4.47;;;;;;;;;;5052747;28;20946;-71
2023/02/14 03:17:55;;;;;;;8.60;5.10;;;;;;;;;;5050282;28;20939;-72
2023/02/14 03:20:23;;;;;;;10.80;7.10;;;;;;;;;;5052993;28;20457;-72
2023/02/14 03:22:52;;;;;;;7.87;4.63;;;;;;;;;;5051758;28;20458;-71
2023/02/14 03:25:27;;;;;;;9.93;6.10;;;;;;;;;;5052704;28;20501;-71
2023/02/14 03:27:58;;;;;;;10.20;5.93;;;;;;;;;;5039535;28;20953;-72
2023/02/14 03:30:30;;;;;;;8.30;5.93;;;;;;;;;;5052301;28;20454;-71
2023/02/14 03:33:00;;;;;;;16.90;5.13;;;;;;;;;;5040885;28;20430;-72
2023/02/14 03:35:30;;;;;;;8.47;5.10;;;;;;;;;;5052617;28;20802;-71
2023/02/14 03:38:01;;;;;;;12.47;6.23;;;;;;;;;;5052241;28;20457;-71
2023/02/14 03:40:32;;;;;;;7.70;5.37;;;;;;;;;;5052512;28;20450;-71
2023/02/14 03:43:02;;;;;;;7.33;4.63;;;;;;;;;;5051867;28;21199;-72
2023/02/14 03:45:31;;;;;;;11.73;6.20;;;;;;;;;;5052270;28;21083;-72
2023/02/14 03:48:00;;;;;;;7.37;4.23;;;;;;;;;;5051859;28;20801;-72
2023/02/14 03:50:28;;;;;;;7.20;5.67;;;;;;;;;;5052181;28;20446;-72
2023/02/14 03:52:56;;;;;;;10.60;4.70;;;;;;;;;;5051187;28;20451;-72
2023/02/14 03:55:27;;;;;;;9.00;5.13;;;;;;;;;;5051772;28;20481;-71
2023/02/14 03:57:58;;;;;;;7.67;5.90;;;;;;;;;;5051794;28;20438;-71
2023/02/14 04:00:25;;;;;;;10.60;7.17;;;;;;;;;;5051957;28;20454;-72
2023/02/14 04:02:54;;;;;;;13.17;6.17;;;;;;;;;;5050892;28;20449;-71
2023/02/14 04:05:23;;;;;;;7.53;5.90;;;;;;;;;;5051869;28;20480;-71
2023/02/14 04:07:52;;;;;;;5.33;4.40;;;;;;;;;;5050962;28;20966;-72
2023/02/14 04:10:20;;;;;;;10.00;6.40;;;;;;;;;;5051575;28;20477;-67
2023/02/14 04:12:47;;;;;;;8.50;5.70;;;;;;;;;;5050661;28;20461;-71
2023/02/14 04:15:16;;;;;;;16.87;5.20;;;;;;;;;;5051726;28;20955;-71
2023/02/14 04:20:28;;;;;;;9.30;5.10;;;;;;;;;;5051251;28;20432;-72
2023/02/14 04:22:56;;;;;;;10.07;5.40;;;;;;;;;;5050718;28;20452;-72
2023/02/14 04:25:23;;;;;;;9.80;4.63;;;;;;;;;;5051467;28;20492;-71
2023/02/14 04:27:50;;;;;;;10.37;6.00;;;;;;;;;;5051315;28;20555;-72
2023/02/14 04:30:21;;;;;;;7.37;6.30;;;;;;;;;;5051375;28;20931;-72
2023/02/14 04:32:48;;;;;;;10.80;4.77;;;;;;;;;;5050856;28;20446;-72
2023/02/14 04:35:16;;;;;;;10.53;5.37;;;;;;;;;;5051671;28;20809;-72
2023/02/14 04:37:43;;;;;;;8.27;5.70;;;;;;;;;;5051603;28;20533;-72
2023/02/14 04:40:10;;;;;;;10.33;6.20;;;;;;;;;;5051611;28;20797;-72
2023/02/14 04:42:37;;;;;;;12.37;6.20;;;;;;;;;;5050829;28;20446;-73
2023/02/14 04:45:05;;;;;;;10.30;5.57;;;;;;;;;;5051579;28;20492;-72
2023/02/14 04:47:33;;;;;;;10.03;6.83;;;;;;;;;;5051210;28;20445;-72
2023/02/14 04:50:00;;;;;;;13.20;6.40;;;;;;;;;;5050824;28;20461;-72
2023/02/14 04:52:27;;;;;;;14.40;5.00;;;;;;;;;;5050862;28;20462;-72
2023/02/14 04:54:54;;;;;;;5.43;4.70;;;;;;;;;;5050126;28;20461;-72
2023/02/14 04:57:22;;;;;;;12.90;6.63;;;;;;;;;;5050838;28;20953;-72
2023/02/14 04:59:49;;;;;;;11.77;8.13;;;;;;;;;;5050581;28;20446;-72
2023/02/14 05:02:16;;;;;;;8.63;6.23;;;;;;;;;;5050699;28;20462;-71
2023/02/14 05:04:44;;;;;;;12.03;6.53;;;;;;;;;;5049862;28;20986;-72
2023/02/14 05:07:11;;;;;;;7.13;3.90;;;;;;;;;;5050890;28;20540;-71
2023/02/14 05:09:38;;;;;;;11.73;5.47;;;;;;;;;;5050849;28;20475;-71
2023/02/14 05:12:06;;;;;;;9.50;4.67;;;;;;;;;;5050576;28;20451;-72
2023/02/14 05:14:33;;;;;;;7.27;5.10;;;;;;;;;;5050835;28;20782;-71
2023/02/14 05:17:00;;;;;;;10.73;5.53;;;;;;;;;;5050527;28;20464;-71
2023/02/14 05:19:27;;;;;;;12.83;5.33;;;;;;;;;;5051003;28;20464;-72
2023/02/14 05:21:55;;;;;;;12.57;6.53;;;;;;;;;;5049989;28;20464;-72
2023/02/14 05:24:22;;;;;;;12.93;7.30;;;;;;;;;;5050320;28;20548;-73
2023/02/14 05:26:49;;;;;;;11.20;5.83;;;;;;;;;;5050209;28;20445;-72
2023/02/14 05:29:16;;;;;;;10.20;7.23;;;;;;;;;;5050917;28;20456;-72
2023/02/14 05:31:44;;;;;;;10.03;6.07;;;;;;;;;;5048507;28;20458;-72
2023/02/14 05:34:11;;;;;;;15.37;6.97;;;;;;;;;;5050510;28;20457;-73
2023/02/14 05:36:38;;;;;;;8.23;7.03;;;;;;;;;;5050044;28;20811;-72
2023/02/14 05:39:07;;;;;;;14.33;7.73;;;;;;;;;;5050771;28;20472;-71
2023/02/14 05:41:34;;;;;;;10.17;5.00;;;;;;;;;;5050130;28;20467;-72
2023/02/14 05:44:01;;;;;;;7.90;5.47;;;;;;;;;;5049758;28;20950;-71
2023/02/14 05:46:28;;;;;;;12.53;5.87;;;;;;;;;;5050706;28;20489;-71
2023/02/14 05:48:55;;;;;;;6.90;4.90;;;;;;;;;;5050533;28;20453;-73
2023/02/14 05:51:22;;;;;;;10.70;6.63;;;;;;;;;;5049946;28;20450;-72
2023/02/14 05:53:49;;;;;;;12.93;5.57;;;;;;;;;;5050103;28;20901;-77
2023/02/14 05:56:18;;;;;;;12.23;7.53;;;;;;;;;;5050408;28;20460;-76
2023/02/14 05:58:45;;;;;;;17.30;7.70;;;;;;;;;;5049894;28;20448;-76
2023/02/14 06:01:12;;;;;;;9.60;6.20;;;;;;;;;;5050565;28;20545;-76
2023/02/14 06:03:39;;;;;;;12.73;8.00;;;;;;;;;;5050709;28;20447;-67
2023/02/14 06:06:07;;;;;;;9.97;6.23;;;;;;;;;;5050393;28;20489;-71
2023/02/14 06:08:34;;;;;;;16.20;6.50;;;;;;;;;;5050354;28;21016;-72
2023/02/14 06:11:01;;;;;;;8.40;6.53;;;;;;;;;;5049830;28;20441;-72
2023/02/14 06:13:29;;;;;;;7.67;5.67;;;;;;;;;;5050554;28;20461;-72
2023/02/14 06:15:56;;;;;;;17.53;6.83;;;;;;;;;;5049987;28;20540;-74
2023/02/14 06:18:26;;;;;;;10.63;5.77;;;;;;;;;;5049350;28;20444;-70
2023/02/14 06:20:53;;;;;;;9.20;7.17;;;;;;;;;;5049708;28;20556;-71
2023/02/14 06:23:20;;;;;;;12.30;5.53;;;;;;;;;;5050704;28;20472;-72
2023/02/14 06:25:48;;;;;;;9.47;5.43;;;;;;;;;;5049141;28;20485;-72
2023/02/14 06:28:15;;;;;;;17.23;6.77;;;;;;;;;;5049489;28;20457;-70
2023/02/14 06:30:43;;;;;;;10.27;6.77;;;;;;;;;;5049702;28;20449;-71
2023/02/14 06:33:10;;;;;;;10.47;6.60;;;;;;;;;;5050563;28;20457;-70
2023/02/14 06:35:38;;;;;;;12.53;5.70;;;;;;;;;;5050581;28;20452;-70
2023/02/14 06:38:05;;;;;;;12.53;6.30;;;;;;;;;;5050416;28;20824;-71
2023/02/14 06:40:32;;;;;;;14.20;8.70;;;;;;;;;;5050376;28;20452;-70
2023/02/14 06:42:59;;;;;;;12.07;5.97;;;;;;;;;;5051903;28;20797;-71
2023/02/14 06:45:26;;;;;;;8.63;5.27;;;;;;;;;;5053875;28;20485;-70
2023/02/14 06:47:54;;;;;;;16.17;8.57;;;;;;;;;;5052711;28;20967;-70
2023/02/14 06:50:21;;;;;;;11.60;5.90;;;;;;;;;;5053784;28;20460;-70
2023/02/14 06:52:50;;;;;;;17.10;8.70;;;;;;;;;;5053377;28;20455;-72
2023/02/14 06:55:17;;;;;;;11.27;8.70;;;;;;;;;;5053279;28;20465;-70
2023/02/14 06:57:45;;;;;;;11.97;7.30;;;;;;;;;;5052530;28;20449;-70
2023/02/14 07:00:13;;;;;;;8.63;7.80;;;;;;;;;;5053742;28;20455;-70
2023/02/14 07:02:40;;;;;;;12.23;6.37;;;;;;;;;;5052794;28;20452;-69
2023/02/14 07:05:09;;;;;;;14.83;6.60;;;;;;;;;;5053747;28;20836;-73
2023/02/14 07:07:36;;;;;;;10.83;6.43;;;;;;;;;;5053191;28;20492;-71
2023/02/14 07:10:03;;;;;;;8.47;5.20;;;;;;;;;;5052617;28;20843;-71
2023/02/14 07:12:30;;;;;;;9.97;6.17;;;;;;;;;;5053206;28;20802;-71
2023/02/14 07:14:57;;;;;;;17.63;7.53;;;;;;;;;;5052916;28;20467;-72
2023/02/14 07:17:24;;;;;;;10.57;6.67;;;;;;;;;;5053062;28;20452;-70
2023/02/14 07:19:51;;;;;;;8.70;6.03;;;;;;;;;;5052575;28;20456;-72
2023/02/14 07:22:20;;;;;;;12.20;8.20;;;;;;;;;;5053251;28;20805;-70
2023/02/14 07:24:47;;;;;;;10.50;6.57;;;;;;;;;;5052729;28;20476;-70
2023/02/14 07:27:14;;;;;;;12.80;7.43;;;;;;;;;;5052641;28;20450;-70
2023/02/14 07:29:41;;;;;;;8.17;5.70;;;;;;;;;;5052394;28;20446;-69
2023/02/14 07:32:08;;;;;;;9.33;6.90;;;;;;;;;;5053285;28;20458;-72
2023/02/14 07:34:35;;;;;;;12.10;6.20;;;;;;;;;;5053334;28;20464;-71
2023/02/14 07:37:03;;;;;;;12.13;7.10;;;;;;;;;;5052163;28;20457;-70
2023/02/14 07:39:31;;;;;;;15.83;8.37;;;;;;;;;;5052387;28;20457;-70
2023/02/14 07:41:58;;;;;;;15.40;8.27;;;;;;;;;;5052148;28;20819;-70
2023/02/14 07:44:25;;;;;;;14.30;8.40;;;;;;;;;;5052606;28;20973;-71
2023/02/14 07:46:52;;;;;;;18.20;6.67;;;;;;;;;;5052101;28;20517;-72
2023/02/14 07:49:19;;;;;;;10.80;7.10;;;;;;;;;;5052510;28;20457;-71
2023/02/14 07:51:47;;;;;;;16.43;7.53;;;;;;;;;;5052191;28;20443;-71
2023/02/14 07:54:14;;;;;;;16.10;9.47;;;;;;;;;;5051958;28;20973;-71
2023/02/14 07:56:42;;;;;;;18.40;8.43;;;;;;;;;;5052038;28;20477;-71
2023/02/14 07:59:09;;;;;;;20.90;7.60;;;2.60;99.90;;;;;;5052375;28;20446;-70
2023/02/14 08:01:36;;;;;;;13.50;7.20;;;2.00;99.90;;;;;;5052329;28;20458;-71
2023/02/14 08:04:02;;;;;;;13.00;5.53;;;1.90;17.80;;;;;;5051775;28;20459;-71
2023/02/14 08:06:29;;;;;;;14.83;8.90;;;2.00;1.00;;;;;;5051954;28;20492;-71
2023/02/14 08:08:56;;;;;;;9.10;7.90;;;1.80;1.00;;;;;;5050916;28;20505;-71
2023/02/14 08:14:08;;;;;;;13.30;7.00;;;1.90;23.30;;;;;;5052376;28;20429;-71
2023/02/14 08:16:37;;;;;;;11.73;6.23;;;2.10;1.00;;;;;;5052443;28;20816;-72
2023/02/14 08:19:04;;;;;;;13.90;8.23;;;2.10;1.00;;;;;;5051956;28;20973;-72
2023/02/14 08:21:31;;;;;;;13.37;9.30;;;2.10;1.00;;;;;;5052301;28;20806;-72
2023/02/14 08:23:58;;;;;;;17.43;9.70;;;2.30;1.00;;;;;;5051610;28;20446;-72
2023/02/14 08:26:25;;;;;;;14.80;7.93;;;2.20;1.00;;;;;;5051989;28;20497;-72
2023/02/14 08:28:52;;;;;;;17.00;6.93;;;2.30;1.00;;;;;;5051148;28;20454;-73
2023/02/14 08:31:25;;;;;;;13.80;7.73;;;2.40;1.00;;;;;;5051808;28;20943;-71
2023/02/14 08:33:51;;;;;;;13.00;7.80;;;2.50;1.00;;;;;;5051433;28;20450;-71
2023/02/14 08:36:18;;;;;;;16.10;7.17;;;2.60;1.00;;;;;;5051999;28;20458;-71
2023/02/14 08:38:47;;;;;;;17.90;9.23;;;2.80;99.90;;;;;;5051268;28;20563;-71
2023/02/14 08:41:14;;;;;;;14.70;9.40;;;2.80;99.90;;;;;;5051471;28;20446;-71
2023/02/14 08:43:41;;;;;;;12.07;9.83;;;2.90;99.90;;;;;;5051283;28;20446;-71
2023/02/14 08:46:07;;;;;;;16.17;8.83;;;2.90;99.90;;;;;;5051563;28;20485;-71
2023/02/14 08:48:36;;;;;;;18.50;8.20;;;2.90;99.90;;;;;;5051353;28;20464;-71
2023/02/14 08:51:06;;;;;;;14.70;7.50;;;3.00;99.90;;;;;;5051125;28;20458;-71
2023/02/14 08:53:32;;;;;;;16.20;7.50;;;3.10;99.90;;;;;;5051599;28;20450;-73
2023/02/14 08:56:02;;;;;;;22.63;10.63;;;3.10;1.00;;;;;;5051110;28;20462;-71
2023/02/14 08:58:29;;;;;;;11.80;8.13;;;3.20;1.00;;;;;;5050951;28;20871;-71
2023/02/14 09:00:56;;;;;;;11.73;6.10;;;3.20;1.00;;;;;;5050899;28;20474;-71
2023/02/14 09:03:23;;;;;;;11.30;6.97;;;3.30;1.00;;;;;;5051250;28;20446;-71
2023/02/14 09:05:51;;;;;;;14.70;8.47;;;3.30;1.00;;;;;;5049947;28;20484;-72
2023/02/14 09:08:18;;;;;;;15.50;8.67;;;3.40;1.00;;;;;;5037859;28;20450;-71
2023/02/14 09:10:44;;;;;;;15.00;7.70;;;3.40;99.90;;;;;;5050491;28;20438;-70
2023/02/14 09:13:11;;;;;;;15.60;8.90;;;3.50;2.50;;;;;;5051347;28;20810;-71
2023/02/14 09:15:39;;;;;;;18.60;8.90;;;3.60;1.00;;;;;;5051224;28;20457;-71
2023/02/14 09:18:06;;;;;;;12.80;8.37;;;3.60;99.90;;;;;;5051124;28;20450;-71
2023/02/14 09:20:32;;;;;;;12.60;9.70;;;3.60;99.90;;;;;;5051138;28;20449;-71
2023/02/14 09:23:00;;;;;;;13.80;10.37;;;3.60;88.10;;;;;;5050353;28;20713;-71
2023/02/14 09:25:27;;;;;;;15.27;7.77;;;3.70;1.00;;;;;;5050978;28;20453;-72
2023/02/14 09:27:54;;;;;;;17.00;10.90;;;3.80;1.00;;;;;;5050031;28;20448;-71
2023/02/14 09:30:21;;;;;;;12.40;7.67;;;3.90;99.90;;;;;;5050832;28;20450;-71
2023/02/14 09:32:47;;;;;;;12.13;7.33;;;4.00;1.00;;;;;;5050628;28;20457;-71
2023/02/14 09:38:18;;;;;;;11.60;8.13;;;4.00;99.90;;;;;;5049697;28;20876;-71
2023/02/14 09:40:45;;;;;;;19.27;9.60;;;4.10;99.90;;;;;;5037429;28;20513;-72
2023/02/14 09:43:18;;;;;;;16.40;7.67;;;4.20;99.90;;;;;;5050958;28;20443;-71
2023/02/14 09:45:48;;;;;;;10.43;6.37;;;;;;;;;;5050605;28;20481;-71
2023/02/14 09:48:23;;;;;;;14.07;9.07;;;;;;;;;;5050582;28;20443;-71
2023/02/14 09:50:52;;;;;;;14.70;8.47;;;;;;;;;;5050518;28;20434;-72
2023/02/14 09:53:23;;;;;;;9.90;7.30;;;;;;;;;;5050492;28;20460;-71
2023/02/14 09:55:52;;;;;;;17.80;8.90;;;;;;;;;;5050497;28;20477;-71
2023/02/14 09:58:22;;;;;;;14.43;6.87;;;;;;;;;;5050242;28;20443;-71
2023/02/14 10:00:54;;;;;;;19.90;8.03;;;;;;;;;;5050070;28;20434;-72
2023/02/14 10:03:35;;;;;;;17.07;7.93;;;;;;;;;;5050809;28;20442;-72
2023/02/14 10:06:07;;;;;;;12.77;7.57;;;;;;;;;;5050185;28;20474;-73
2023/02/14 10:08:41;;;;;;;15.10;8.57;;;;;;;;;;5050577;28;20482;-72
2023/02/14 10:11:11;;;;;;;13.67;6.53;;;;;;;;;;5051159;28;20442;-72
2023/02/14 10:13:40;;;;;;;11.83;7.03;;;;;;;;;;5050739;28;20454;-71
2023/02/14 10:16:10;;;;;;;14.77;9.43;;;;;;;;;;5050832;28;20454;-71
2023/02/14 10:18:41;;;;;;;14.90;7.57;;;;;;;;;;5053820;28;20457;-72
2023/02/14 10:21:14;;;;;;;14.77;8.13;;;;;;;;;;5054697;28;20446;-72
2023/02/14 10:23:44;;;;;;;10.80;9.03;;;;;;;;;;5053821;28;20441;-71
2023/02/14 10:26:13;;;;;;;13.90;8.27;;;;;;;;;;5054510;28;20485;-71
2023/02/14 10:28:44;;;;;;;8.60;6.40;;;;;;;;;;5053268;28;20481;-66
2023/02/14 10:31:18;;;;;;;14.00;8.03;;;;;;;;;;5053884;28;20919;-72
2023/02/14 10:33:48;;;;;;;13.33;7.70;;;;;;;;;;5053652;28;20489;-71
2023/02/14 10:36:19;;;;;;;11.67;8.10;;;;;;;;;;5053937;28;20947;-69
2023/02/14 10:38:51;;;;;;;12.50;7.90;;;;;;;;;;5053319;28;20454;-71
2023/02/14 10:41:24;;;;;;;12.57;8.43;;;;;;;;;;5054314;28;20446;-70
2023/02/14 10:43:55;;;;;;;15.30;9.33;;;;;;;;;;5053466;28;20449;-69
2023/02/14 10:46:28;;;;;;;12.90;8.00;;;;;;;;;;5053774;28;20997;-70
2023/02/14 10:48:58;;;;;;;15.33;7.77;;;;;;;;;;5053155;28;20442;-70
2023/02/14 10:51:30;;;;;;;14.03;8.33;;;;;;;;;;5053591;28;20449;-72
2023/02/14 10:54:03;;;;;;;7.50;6.57;;;;;;;;;;5053501;28;20447;-70
2023/02/14 10:56:35;;;;;;;10.53;7.70;;;;;;;;;;5053861;28;20458;-73
2023/02/14 10:59:08;;;;;;;17.00;10.50;;;;;;;;;;5052518;28;20446;-73
2023/02/14 11:01:36;;;;;;;19.03;9.43;;;;;;;;;;5053746;28;20806;-72
2023/02/14 11:04:07;;;;;;;16.57;8.50;;;;;;;;;;5053168;28;20446;-71
2023/02/14 11:06:34;;;;;;;16.43;9.17;;;;;;;;;;5053710;28;20478;-70
2023/02/14 11:09:03;;;;;;;10.40;7.93;;;;;;;;;;5052113;28;21014;-70
2023/02/14 11:11:32;;;;;;;12.30;7.77;;;;;;;;;;5053454;28;20452;-71
2023/02/14 11:13:59;;;;;;;17.20;7.40;;;;;;;;;;5052902;28;20843;-73
2023/02/14 11:16:31;;;;;;;15.83;9.07;;;;;;;;;;5053500;28;20451;-70
2023/02/14 11:19:19;;;;;;;11.17;7.90;;;;;;;;;;5052436;28;20800;-69
2023/02/14 11:21:47;;;;;;;10.83;6.40;;;;;;;;;;5052596;28;20446;-70
2023/02/14 11:24:19;;;;;;;19.60;7.90;;;;;;;;;;5052997;28;20441;-70
2023/02/14 11:26:47;;;;;;;14.63;8.20;;;;;;;;;;5052251;28;20485;-69
2023/02/14 11:29:15;;;;;;;11.57;8.07;;;;;;;;;;5052282;28;20450;-70
2023/02/14 11:31:43;;;;;;;13.47;7.90;;;;;;;;;;5052821;28;20454;-70
2023/02/14 11:34:22;;;;;;;14.10;8.80;;;;;;;;;;5052806;28;20458;-70
2023/02/14 11:36:49;;;;;;;15.10;7.87;;;;;;;;;;5051780;28;20450;-70
2023/02/14 11:39:23;;;;;;;12.70;8.27;;;;;;;;;;5053120;28;20451;-70
2023/02/14 11:41:51;;;;;;;13.03;9.63;;;;;;;;;;5052260;28;20434;-70
2023/02/14 11:44:21;;;;;;;14.43;9.67;;;;;;;;;;5053059;28;20454;-70
2023/02/14 11:46:49;;;;;;;13.57;8.27;;;;;;;;;;5051642;28;20478;-71
2023/02/14 11:49:26;;;;;;;18.17;8.70;;;;;;;;;;5052924;28;20828;-72
2023/02/14 11:51:53;;;;;;;11.50;7.80;;;;;;;;;;5052274;28;20866;-70
2023/02/14 11:54:28;;;;;;;14.53;9.43;;;;;;;;;;5052887;28;20446;-70
2023/02/14 11:56:56;;;;;;;15.83;9.50;;;;;;;;;;5051648;28;20446;-70
2023/02/14 11:59:26;;;;;;;15.00;8.70;;;;;;;;;;5052370;28;20455;-70
2023/02/14 12:01:54;;;;;;;13.90;9.30;;;;;;;;;;5052444;28;20458;-71
2023/02/14 12:04:22;;;;;;;17.60;8.50;;;;;;;;;;5052629;28;20442;-71
2023/02/14 12:06:50;;;;;;;11.97;7.10;;;;;;;;;;5051436;28;20486;-70
2023/02/14 12:09:26;;;;;;;13.50;7.83;;;;;;;;;;5052502;28;20474;-70
2023/02/14 12:11:57;;;;;;;11.67;7.50;;;;;;;;;;5052061;28;20438;-70
2023/02/14 12:14:25;;;;;;;12.27;7.83;;;;;;;;;;5052507;28;20442;-70
2023/02/14 12:16:55;;;;;;;15.33;8.40;;;;;;;;;;5051348;28;20460;-71
2023/02/14 12:19:25;;;;;;;12.63;7.50;;;;;;;;;;5051740;28;20918;-71
2023/02/14 12:21:54;;;;;;;11.90;7.10;;;;;;;;;;5051310;28;20504;-70
2023/02/14 12:24:26;;;;;;;12.17;8.13;;;;;;;;;;5052040;28;20492;-71
2023/02/14 12:26:58;;;;;;;12.27;6.67;;;;;;;;;;5050942;28;20817;-71
2023/02/14 12:29:27;;;;;;;14.80;7.87;;;;;;;;;;5051739;28;20450;-71
2023/02/14 12:31:57;;;;;;;11.10;8.07;;;;;;;;;;5050919;28;20453;-70
2023/02/14 12:34:24;;;;;;;11.40;7.20;;;;;;;;;;5051607;28;20438;-71
2023/02/14 12:37:02;;;;;;;12.67;6.93;;;;;;;;;;5051083;28;20454;-71
2023/02/14 12:39:35;;;;;;;10.77;7.03;;;;;;;;;;5053696;28;20457;-71
2023/02/14 12:42:10;;;;;;;10.33;7.03;;;;;;;;;;5059218;28;20483;-71
2023/02/14 12:44:43;;;;;;;12.40;7.40;;;;;;;;;;5063923;28;20452;-71
2023/02/14 12:47:17;;;;;;;11.70;8.57;;;;;;;;;;5065945;28;20486;-68
2023/02/14 12:49:54;;;;;;;8.77;6.40;;;;;;;;;;5068131;28;20440;-68
2023/02/14 12:52:34;;;;;;;12.00;7.63;;;;;;;;;;5069891;28;20473;-71
2023/02/14 12:55:08;;;;;;;15.70;7.90;;;;;;;;;;5069613;28;20453;-71
2023/02/14 12:57:40;;;;;;;9.87;6.53;;;;;;;;;;5067690;28;20445;-71
2023/02/14 13:00:23;;;;;;;15.37;8.10;;;;;;;;;;5068899;28;20460;-72
2023/02/14 13:03:01;;;;;;;9.50;7.43;;;;;;;;;;5069399;28;20446;-73
2023/02/14 13:05:34;;;;;;;11.23;8.07;;;;;;;;;;5067989;28;20526;-71
2023/02/14 13:08:07;;;;;;;12.40;7.47;;;;;;;;;;5065458;28;20533;-72
2023/02/14 13:10:41;;;;;;;13.60;7.60;;;;;;;;;;5065920;28;20454;-70
2023/02/14 13:13:14;;;;;;;13.67;7.30;;;;;;;;;;5056132;28;20449;-72
2023/02/14 13:15:43;;;;;;;11.43;7.43;;;;;;;;;;5051210;28;20447;-70
2023/02/14 13:18:14;;;;;;;16.27;9.00;;;;;;;;;;5051057;28;20451;-71
2023/02/14 13:20:46;;;;;;;13.10;8.33;;;;;;;;;;5050314;28;20450;-70
2023/02/14 13:23:16;;;;;;;9.40;7.73;;;;;;;;;;5050805;28;20997;-70
2023/02/14 13:25:48;;;;;;;12.60;7.97;;;;;;;;;;5050534;28;20466;-71
2023/02/14 13:28:17;;;;;;;12.23;8.00;;;;;;;;;;5050373;28;20885;-70
2023/02/14 13:30:44;;;;;;;13.97;7.70;;;;;;;;;;5050308;28;20454;-70
2023/02/14 13:33:20;;;;;;;11.10;8.00;;;;;;;;;;5051196;28;20454;-71
2023/02/14 13:35:47;;;;;;;12.27;7.40;;;;;;;;;;5050404;28;20495;-70
2023/02/14 13:38:17;;;;;;;11.07;8.20;;;;;;;;;;5050631;28;20469;-70
2023/02/14 13:40:44;;;;;;;13.47;8.60;;;;;;;;;;5049784;28;20913;-70
2023/02/14 13:43:11;;;;;;;10.70;7.23;;;;;;;;;;5050588;28;20446;-71
2023/02/14 13:45:56;;;;;;;13.57;8.93;;;;;;;;;;5050565;28;20458;-71
2023/02/14 13:48:25;;;;;;;13.07;7.93;;;;;;;;;;5050266;28;20477;-71
2023/02/14 13:50:53;;;;;;;15.63;9.07;;;;;;;;;;5050306;28;20458;-72
2023/02/14 13:53:31;;;;;;;14.47;8.87;;;;;;;;;;5053848;28;20891;-72
2023/02/14 13:55:58;;;;;;;15.37;9.00;;;;;;;;;;5054897;28;20460;-71
2023/02/14 13:58:25;;;;;;;15.53;8.40;;;;;;;;;;5054502;28;20450;-71
2023/02/14 14:00:53;;;;;;;12.93;8.50;;;;;;;;;;5054294;28;20945;-71
2023/02/14 14:03:35;;;;;;;13.70;8.33;;;;;;;;;;5054957;28;20454;-71
2023/02/14 14:06:04;;;;;;;13.13;8.87;;;;;;;;;;5053777;28;20438;-71
2023/02/14 14:08:39;;;;;;;14.73;8.40;;;;;;;;;;5054164;28;20497;-72
2023/02/14 14:11:11;;;;;;;16.10;8.20;;;;;;;;;;5054934;28;20452;-71
2023/02/14 14:13:57;;;;;;;12.77;8.63;;;;;;;;;;5054872;28;20830;-71
2023/02/14 14:16:27;;;;;;;13.03;8.63;;;;;;;;;;5054337;28;20451;-71
2023/02/14 14:18:56;;;;;;;13.83;9.67;;;;;;;;;;5054323;28;20533;-71
2023/02/14 14:21:26;;;;;;;18.50;9.20;;;;;;;;;;5054659;28;20442;-72
2023/02/14 14:24:04;;;;;;;12.37;8.87;;;;;;;;;;5053631;28;20453;-72
2023/02/14 14:26:35;;;;;;;16.80;10.30;;;;;;;;;;5054115;28;20456;-72
2023/02/14 14:29:04;;;;;;;10.57;7.37;;;;;;;;;;5053719;28;20466;-72
2023/02/14 14:31:31;;;;;;;16.83;9.50;;;;;;;;;;5054340;28;20508;-72
2023/02/14 14:33:58;;;;;;;13.67;8.67;;;;;;;;;;5053715;28;20450;-72
2023/02/14 14:36:27;;;;;;;17.93;9.03;;;;;;;;;;5053940;28;20446;-71
2023/02/14 14:38:54;;;;;;;11.83;9.10;;;;;;;;;;5053828;28;20465;-72
2023/02/14 14:41:27;;;;;;;12.17;8.70;;;;;;;;;;5053910;28;20453;-71
2023/02/14 14:43:54;;;;;;;16.40;10.57;;;;;;;;;;5053443;28;20446;-72
2023/02/14 14:46:23;;;;;;;14.30;9.67;;;;;;;;;;5053856;28;20454;-71
2023/02/14 14:48:53;;;;;;;12.97;8.27;;;;;;;;;;5039997;28;20485;-71